Nearby METAR Reports

Aktualna pogoda na lotniskach (dane METAR)

 

EPGD - Gdansk/Rebiechow, Poland
Distance from station: ENE 27mi, 44km
Updated: Wed, 23-Oct-2019 2:00pm PDT
Partly Cloudy
Partly Cloudy
 Wind from SSE
Wind: SSE 5 mph , 7 km/h
Temperature: 46°F , 8°C
Wind Chill: 44°F , 7°C
Dew Point: 46°F , 8°C
Humidity: 100%
Barometer: 30.09 inHg , 1019 hPa
Clouds: Partly Cloudy
Visibility: 5 miles , 8 km
2019/10/23 21:00 EPGD 232100Z 16004KT 8000 NSC 08/08 Q1019
EPSC - Szczecin/Golenio, Poland
Distance from station: WSW 128mi, 205km
Updated: Wed, 23-Oct-2019 2:00pm PDT
Clear
Clear
 Wind from ESE
Wind: ESE 8 mph , 13 km/h
Temperature: 52°F , 11°C
Dew Point: 48°F , 9°C
Humidity: 88%
Barometer: 30 inHg , 1016 hPa
Summary: Clear
Visibility: greater than 7 miles , 10 km
2019/10/23 21:00 EPSC 232100Z 11007KT CAVOK 11/09 Q1016
 
EPPO - Poznan/Lawica, Poland
Distance from station: SSW 131mi, 210km
Updated: Wed, 23-Oct-2019 2:00pm PDT
Mist, Overcast
Mist, Overcast
 Wind from ESE
Wind: ESE 10 mph , 17 km/h
Temperature: 54°F , 12°C
Dew Point: 52°F , 11°C
Humidity: 94%
Barometer: 30.03 inHg , 1017 hPa
Summary: Mist
Clouds: Overcast
Visibility: 2 miles , 3 km
Cloud details: Overcast 300 ft
2019/10/23 21:00 EPPO 232100Z 12009KT 2500 BR OVC003 12/11 Q1017
EPLL - Lodz/Lublinek, Poland
Distance from station: SSE 184mi, 296km
Updated: Wed, 23-Oct-2019 2:00pm PDT
Fog, Overcast
Fog, Overcast
 Wind from E
Wind: E 8 mph , 13 km/h
Temperature: 54°F , 12°C
Dew Point: 54°F , 12°C
Humidity: 100%
Barometer: 30.06 inHg , 1018 hPa
Summary: Fog
Clouds: Overcast
Visibility: 0 mile , 0 km
Cloud details: Overcast 100 ft
2019/10/23 21:00 EPLL 232100Z 09007KT 060V120 0250 R25/0800N FG VV001 12/12 Q1018
 
EPWA - Warsaw/Okecie, Poland
Distance from station: SE 191mi, 307km
Updated: Wed, 23-Oct-2019 2:00pm PDT
Fog, Mostly cloudy
Fog, Mostly cloudy
 Wind from ESE
Wind: ESE 6 mph , 9 km/h
Temperature: 52°F , 11°C
Dew Point: 52°F , 11°C
Humidity: 100%
Barometer: 30.12 inHg , 1020 hPa
Summary: Fog
Clouds: Mostly Cloudy
Visibility: 1 mile , 1 km
Cloud details: Mostly Cloudy 200 ft
2019/10/23 21:00 EPWA 232100Z 12005KT 080V160 0900 R33/0600D FG BKN002 11/11 Q1020 NOSIG
EPWR - Wroclaw/Strachow, Poland
Distance from station: S 219mi, 352km
Updated: Wed, 23-Oct-2019 2:00pm PDT
Mist, Overcast
Mist, Overcast
 Wind from ESE
Wind: ESE 7 mph , 11 km/h
Temperature: 57°F , 14°C
Dew Point: 57°F , 14°C
Humidity: 100%
Barometer: 30.03 inHg , 1017 hPa
Summary: Mist
Clouds: Overcast
Visibility: 1 mile , 2 km
Cloud details: Mostly Cloudy 300 ft
Overcast 500 ft
2019/10/23 21:00 EPWR 232100Z 11006KT 2000 BR BKN003 OVC005 14/14 Q1017

Metar display script from Saratoga-Weather.org